Flight Track Log - Related Links

Times and Time Zones

All times are in EDT time to prevent confusion due to time zone crossing. See the N510SR flight status page for this flight to view local times or setup timezone preferences in your user account.

Time Position Orientation Groundspeed Altitude Reporting Facility
EDT Latitude Longitude Course Direction KTS MPH feet Rate Location/Type
Thu 10:27:12 PM 40.9000 -74.0333 56° Northeast 189 217 2,000  Level New York TRACON
Thu 10:28:12 PM 40.9500 -74.1000 315° West 273 314 4,000 1,905 Climbing New York TRACON
Thu 10:29:18 PM 41.0333 -74.1333 343° North 248 285 6,000 1,000 Climbing New York TRACON
Thu 10:30:12 PM 41.1000 -74.1333 360° North 266 306 6,000 1,333 Level New York TRACON
Thu 10:31:51 PM 41.1539 -73.9867 64° Northeast 287 330 9,400 1,887 Climbing Boston Center
Thu 10:32:00 PM 41.2943 -73.4780 56° Northeast  Level FlightAware Approximate
Thu 10:32:51 PM 41.1783 -73.8769 73° East 297 342 11,000  Level Boston Center
Thu 10:33:51 PM 41.1339 -73.7711 119° Southeast 296 341 13,100 2,100 Climbing Boston Center
Thu 10:34:51 PM 41.1247 -73.6469 96° East 321 369 15,200 2,250 Climbing Boston Center
Thu 10:35:51 PM 41.1822 -73.5294 57° Northeast 361 415 17,600 2,350 Climbing Boston Center
Thu 10:36:51 PM 41.2417 -73.4172 55° Northeast 381 438 19,900 2,000 Climbing Boston Center
Thu 10:37:51 PM 41.3050 -73.2939 56° Northeast 393 452 21,600 1,350 Climbing Boston Center
Thu 10:38:51 PM 41.3706 -73.1647 56° Northeast 398 458 22,600 1,150 Climbing Boston Center
Thu 10:39:51 PM 41.4319 -73.0269 59° Northeast 416 479 23,900 1,250 Climbing Boston Center
Thu 10:40:51 PM 41.4931 -72.8836 60° Northeast 429 494 25,100 1,150 Climbing Boston Center
Thu 10:41:51 PM 41.5561 -72.7203 63° Northeast 434 499 26,200 1,050 Climbing Boston Center
Thu 10:42:51 PM 41.6167 -72.5650 62° Northeast 450 518 27,200 950 Climbing Boston Center
Thu 10:43:51 PM 41.6772 -72.3983 64° Northeast 469 540 28,100 950 Climbing Boston Center
Thu 10:44:51 PM 41.7417 -72.2314 63° Northeast 482 555 29,100 1,000 Climbing Boston Center
Thu 10:45:51 PM 41.8058 -72.0642 63° Northeast 493 567 30,100 950 Climbing Boston Center
Thu 10:46:51 PM 41.8697 -71.8936 63° Northeast 498 573 31,000 1,150 Climbing Boston Center
Thu 10:47:51 PM 41.9292 -71.7342 63° Northeast 511 588 32,400 1,300 Climbing Boston Center
Thu 10:48:51 PM 42.0072 -71.5489 60° Northeast 511 588 33,600 1,200 Climbing Boston Center
Thu 10:49:51 PM 42.0703 -71.3772 64° Northeast 511 588 34,800 1,250 Climbing Boston Center
Thu 10:50:51 PM 42.1353 -71.2000 64° Northeast 511 588 36,100 1,100 Climbing Boston Center
Thu 10:51:51 PM 42.1978 -71.0278 64° Northeast 511 588 37,000 900 Climbing Boston Center
Thu 10:52:51 PM 42.2622 -70.8550 63° Northeast 511 588 37,900 900 Climbing Boston Center
Thu 10:53:51 PM 42.3139 -70.6881 67° East 511 588 38,800 950 Climbing Boston Center
Thu 10:54:51 PM 42.3800 -70.5175 62° Northeast 511 588 39,800 1,100 Climbing Boston Center
Thu 10:55:51 PM 42.4394 -70.3469 65° Northeast 505 581 41,000 650 Climbing Boston Center
Thu 10:56:51 PM 42.5008 -70.1758 64° Northeast 505 581 41,100  Climbing Boston Center
Thu 10:57:51 PM 42.5619 -70.0017 64° Northeast 500 575 41,000 -50 Descending Boston Center
Thu 10:58:51 PM 42.6247 -69.8272 64° Northeast 510 587 41,000  Level Boston Center
Thu 10:59:51 PM 42.6892 -69.6464 64° Northeast 515 593 41,000  Level Boston Center
Thu 11:00:51 PM 42.7494 -69.4711 65° Northeast 510 587 41,000  Level Boston Center
Thu 11:01:50 PM 42.7833 -69.2833 76° East 520 598 41,000  Level Moncton Center
Thu 11:02:50 PM 42.8667 -69.1167 56° Northeast 520 598 41,000  Level Moncton Center
Thu 11:03:51 PM 42.9397 -68.9086 64° Northeast 510 587 41,000  Level Boston Center
Thu 11:04:51 PM 43.0006 -68.7264 65° Northeast 510 587 41,000  Level Boston Center
Thu 11:05:51 PM 43.0558 -68.5722 64° Northeast 510 587 41,000  Level Boston Center
Thu 11:06:51 PM 43.1161 -68.3892 66° East 510 587 41,000  Level Boston Center
Thu 11:07:51 PM 43.1764 -68.2058 66° East 510 587 41,000  Level Boston Center
Thu 11:08:51 PM 43.2361 -68.0247 66° East 510 587 41,000  Level Boston Center
Thu 11:09:51 PM 43.2978 -67.8406 65° Northeast 515 593 41,000  Level Boston Center
Thu 11:10:51 PM 43.3569 -67.6561 66° East 515 593 41,000  Level Boston Center
Thu 11:11:51 PM 43.4156 -67.4683 67° East 520 598 41,000  Level Boston Center
Thu 11:12:51 PM 43.4761 -67.2831 66° East 520 598 41,000  Level Boston Center
Thu 11:13:51 PM 43.5342 -67.0947 67° East 520 598 41,000  Level Boston Center
Thu 11:14:50 PM 43.5833 -66.8833 72° East 530 610 41,000  Level Moncton Center
Thu 11:15:50 PM 43.6500 -66.7000 63° Northeast 540 621 41,000  Level Moncton Center
Thu 11:16:50 PM 43.7000 -66.5000 71° East 540 621 41,000  Level Moncton Center
Thu 11:17:50 PM 43.7500 -66.3167 69° East 540 621 41,000  Level Moncton Center
Thu 11:18:50 PM 43.8000 -66.1167 71° East 540 621 41,000  Level Moncton Center
Thu 11:19:50 PM 43.8667 -65.9333 63° Northeast 540 621 41,000 50 Level Moncton Center
Thu 11:20:50 PM 43.9167 -65.7167 72° East 540 621 41,100  Climbing Moncton Center
Thu 11:21:50 PM 43.9667 -65.5333 69° East 540 621 41,000  Descending Moncton Center
Thu 11:22:50 PM 44.0167 -65.3333 71° East 540 621 41,100 50 Climbing Moncton Center
Thu 11:23:50 PM 44.0667 -65.1333 71° East 540 621 41,100 -50 Level Moncton Center
Thu 11:24:50 PM 44.1333 -64.9333 65° Northeast 540 621 41,000 -50 Descending Moncton Center
Thu 11:25:50 PM 44.1833 -64.7500 69° East 540 621 41,000  Level Moncton Center
Thu 11:26:50 PM 44.2333 -64.5667 69° East 540 621 41,000 50 Level Moncton Center
Thu 11:27:50 PM 44.2833 -64.3500 72° East 540 621 41,100  Climbing Moncton Center
Thu 11:28:50 PM 44.3333 -64.1667 69° East 540 621 41,000 -50 Descending Moncton Center
Thu 11:29:50 PM 44.3833 -63.9500 72° East 540 621 41,000  Level Moncton Center
Thu 11:30:50 PM 44.4333 -63.7667 69° East 540 621 41,000  Level Moncton Center
Thu 11:31:50 PM 44.4833 -63.5500 72° East 540 621 41,000  Level Moncton Center
Thu 11:32:50 PM 44.5333 -63.3667 69° East 540 621 41,000  Level Moncton Center
Thu 11:33:50 PM 44.5833 -63.1500 72° East 540 621 41,000 50 Level Moncton Center
Thu 11:34:50 PM 44.6333 -62.9667 69° East 540 621 41,100  Climbing Moncton Center
Thu 11:35:50 PM 44.7000 -62.7500 67° East 540 621 41,000 -50 Descending Moncton Center
Thu 11:36:50 PM 44.7333 -62.5667 76° East 540 621 41,000 50 Level Moncton Center
Thu 11:37:50 PM 44.7833 -62.3500 72° East 540 621 41,100 50 Climbing Moncton Center
Thu 11:38:50 PM 44.8333 -62.1500 71° East 540 621 41,100  Level Moncton Center
Thu 11:39:50 PM 44.8833 -61.9667 69° East 540 621 41,100 -50 Level Moncton Center
Thu 11:40:50 PM 44.9167 -61.7500 78° East 540 621 41,000  Descending Moncton Center
Thu 11:41:50 PM 44.9667 -61.5667 69° East 540 621 41,100 50 Climbing Moncton Center
Thu 11:42:50 PM 45.0167 -61.3500 72° East 540 621 41,100  Level Moncton Center
Thu 11:43:50 PM 45.0667 -61.1500 70° East 540 621 41,100  Level Moncton Center
Thu 11:44:50 PM 45.1000 -60.9333 78° East 540 621 41,100  Level Moncton Center
Thu 11:45:50 PM 45.1667 -60.7167 66° East 540 621 41,100  Level Moncton Center
Thu 11:46:50 PM 45.2000 -60.5333 75° East 540 621 41,100 -50 Level Moncton Center
Thu 11:47:50 PM 45.2500 -60.3333 70° East 540 621 41,000  Descending Moncton Center
Thu 11:48:50 PM 45.3000 -60.1167 72° East 530 610 41,100 50 Climbing Moncton Center
Thu 11:49:50 PM 45.3333 -59.9500 74° East 530 610 41,100 -50 Level Moncton Center
Thu 11:50:50 PM 45.3833 -59.7333 72° East 530 610 41,000  Descending Moncton Center
Thu 11:51:50 PM 45.4167 -59.5333 77° East 530 610 41,100 50 Climbing Moncton Center
Thu 11:52:50 PM 45.4667 -59.3167 72° East 530 610 41,100  Level Moncton Center
Thu 11:53:50 PM 45.5000 -59.1167 77° East 530 610 41,100  Level Moncton Center
Thu 11:54:50 PM 45.5333 -58.9167 77° East 520 598 41,100  Level Moncton Center
Thu 11:55:50 PM 45.5833 -58.7333 69° East 520 598 41,100  Level Moncton Center
Thu 11:56:50 PM 45.6167 -58.5333 77° East 520 598 41,100  Level Moncton Center
Thu 11:57:50 PM 45.6667 -58.3333 70° East 520 598 41,100 -50 Level Moncton Center
Thu 11:58:50 PM 45.7000 -58.1167 78° East 520 598 41,000  Descending Moncton Center
Thu 11:59:49 PM 45.7333 -57.9167 77° East 520 598 41,100  Climbing Moncton Center
Fri 12:00:50 AM 45.7833 -57.7500 67° East 520 598 41,000 -50 Descending Moncton Center
Fri 12:01:49 AM 45.8167 -57.5333 77° East 520 598 41,000  Level Moncton Center
Fri 12:02:49 AM 45.8500 -57.3333 76° East 520 598 41,000  Level Moncton Center
Fri 12:03:50 AM 45.8833 -57.1333 76° East 520 598 41,000  Level Moncton Center
Fri 12:04:50 AM 45.9333 -56.9333 70° East 520 598 41,000  Level Moncton Center
Fri 12:05:50 AM 45.9667 -56.7333 76° East 510 587 41,000  Level Moncton Center
Fri 12:06:50 AM 46.0000 -56.5333 76° East 510 587 41,000  Level Moncton Center
Fri 12:07:50 AM 46.0333 -56.3333 76° East 500 575 41,000 50 Level Moncton Center
Fri 12:08:50 AM 46.0667 -56.1333 76° East 500 575 41,100 50 Climbing Moncton Center
Fri 12:09:50 AM 46.1167 -55.9333 70° East 500 575 41,100  Level Moncton Center
Fri 12:10:50 AM 46.1500 -55.7667 74° East 520 598 41,100 -50 Level Moncton Center
Fri 12:11:50 AM 46.1833 -55.5667 76° East 500 575 41,000  Descending Moncton Center
Fri 12:12:50 AM 46.2000 -55.3667 83° East 510 587 41,100 62 Climbing Moncton Center
Fri 12:13:27 AM 46.2333 -55.2500 68° East 510 587 41,100  Level Gander Center
Fri 12:13:53 AM 46.2333 -55.1667 90° East 510 587 41,100 -70 Level Gander Center
Fri 12:14:53 AM 46.2833 -54.9500 71° East 510 587 41,000  Descending Gander Center
Fri 12:15:50 AM 46.3000 -54.7833 82° East 510 587 41,100  Climbing Moncton Center
Fri 12:16:50 AM 46.3333 -54.5667 77° East 510 587 41,000  Descending Moncton Center
Fri 12:17:50 AM 46.3667 -54.3833 75° East 510 587 41,100  Climbing Moncton Center
Fri 12:18:50 AM 46.4000 -54.1667 77° East 500 575 41,000  Descending Moncton Center
Fri 12:19:50 AM 46.4333 -53.9833 75° East 500 575 41,100  Climbing Moncton Center
Fri 12:20:50 AM 46.4667 -53.7833 76° East 510 587 41,000 -50 Descending Moncton Center
Fri 12:21:50 AM 46.5000 -53.5833 76° East 500 575 41,000  Level Moncton Center
Fri 12:22:50 AM 46.5167 -53.3833 83° East 500 575 41,000  Level Moncton Center
Fri 12:23:50 AM 46.5500 -53.1833 76° East 500 575 41,000  Level Moncton Center
Fri 12:24:50 AM 46.5667 -53.0000 82° East 490 564 41,000  Level Moncton Center
Fri 12:25:50 AM 46.6000 -52.8000 76° East 490 564 41,000  Level Moncton Center
Fri 12:26:27 AM 46.6333 -52.6667 70° East 490 564 41,000  Level Gander Center
Fri 12:26:50 AM 46.6333 -52.6167 90° East 490 564 41,000  Level Moncton Center
Fri 12:27:50 AM 46.6667 -52.4167 76° East 490 564 41,000 50 Level Moncton Center
Fri 12:28:50 AM 46.6833 -52.2167 83° East 490 564 41,100  Climbing Moncton Center
Fri 12:29:50 AM 46.7167 -52.0167 76° East 490 564 41,000 -50 Descending Moncton Center
Fri 12:30:50 AM 46.7500 -51.8333 75° East 490 564 41,000  Level Moncton Center
Fri 12:31:27 AM 46.7667 -51.7167 78° East 490 564 41,000  Level Gander Center
Fri 12:31:53 AM 46.7667 -51.6333 90° East 490 564 41,000  Level Gander Center
Fri 12:32:50 AM 46.7833 -51.4500 82° East 490 564 41,000  Level Moncton Center
Fri 12:33:50 AM 46.8167 -51.2500 76° East 490 564 41,000  Level Moncton Center
Fri 12:34:50 AM 46.8500 -51.0500 76° East 490 564 41,000  Level Moncton Center
Fri 12:35:50 AM 46.8667 -50.8667 82° East 490 564 41,000  Level Moncton Center
Fri 12:36:53 AM 46.9000 -50.6500 77° East 490 564 41,000  Level Gander Center
Fri 12:37:53 AM 46.9167 -50.4500 83° East 490 564 41,000  Level Gander Center
Fri 12:38:53 AM 46.9500 -50.2500 76° East 490 564 41,000  Level Gander Center
Fri 12:39:53 AM 46.9833 -50.0500 78° East 490 564 41,000  Level Gander Center
Fri 12:40:00 AM 47.0000 -50.0000 78° East 511 588 41,000  Level ETMS Enhanced Traffic Management System
Fri 12:40:53 AM 47.0000 -49.8667 82° East 490 564 41,000  Level Gander Center
Fri 12:41:53 AM 47.0167 -49.6667 83° East 490 564 41,000  Level Gander Center
Fri 12:42:53 AM 47.0500 -49.4667 76° East 500 575 41,000  Level Gander Center
Fri 12:43:53 AM 47.0833 -49.2833 75° East 500 575 41,000  Level Gander Center
Fri 12:44:53 AM 47.1167 -49.0833 76° East 500 575 41,000  Level Gander Center
Fri 12:45:27 AM 47.1333 -48.9500 80° East 500 575 41,000  Level Gander Center
Fri 12:46:27 AM 47.1333 -48.7833 90° East 500 575 41,000  Level Gander Center
Fri 12:47:27 AM 47.1667 -48.5667 77° East 500 575 41,000  Level Gander Center
Fri 12:47:53 AM 47.1833 -48.4667 76° East 500 575 41,000  Level Gander Center
Fri 12:48:27 AM 47.2000 -48.3667 76° East 500 575 41,000  Level Gander Center
Fri 12:49:27 AM 47.2167 -48.1667 83° East 510 587 41,000  Level Gander Center
Fri 12:49:53 AM 47.2333 -48.0833 74° East 500 575 41,000  Level Gander Center
Fri 12:50:53 AM 47.2667 -47.8667 77° East 510 587 41,000  Level Gander Center
Fri 12:51:53 AM 47.3000 -47.6667 76° East 500 575 41,000 50 Level Gander Center
Fri 12:52:53 AM 47.3167 -47.4667 83° East 510 587 41,100 50 Climbing Gander Center
Fri 12:53:53 AM 47.3500 -47.2500 77° East 510 587 41,100  Level Gander Center
Fri 12:54:53 AM 47.3500 -47.0500 90° East 500 575 41,100 -3 Level Gander Center
Fri 12:57:00 AM 47.3901 -46.7458 79° East  Level FlightAware Approximate
Fri 01:04:00 AM 47.5613 -45.3666 79° East  Level FlightAware Approximate
Fri 01:05:00 AM 47.5844 -45.1688 80° East  Level FlightAware Approximate
Fri 01:06:00 AM 47.6062 -44.9699 82° East  Level FlightAware Approximate
Fri 01:07:00 AM 47.6254 -44.7711 82° East  Level FlightAware Approximate
Fri 01:08:00 AM 47.6442 -44.5721 82° East  Level FlightAware Approximate
Fri 01:09:00 AM 47.6627 -44.3730 82° East  Level FlightAware Approximate
Fri 01:10:00 AM 47.6808 -44.1737 82° East  Level FlightAware Approximate
Fri 01:11:00 AM 47.6986 -43.9743 82° East  Level FlightAware Approximate
Fri 01:12:00 AM 47.7161 -43.7747 83° East  Level FlightAware Approximate
Fri 01:13:00 AM 47.7332 -43.5751 83° East  Level FlightAware Approximate
Fri 01:14:00 AM 47.7500 -43.3753 83° East  Level FlightAware Approximate
Fri 01:15:00 AM 47.7664 -43.1754 83° East  Level FlightAware Approximate
Fri 01:16:00 AM 47.7824 -42.9753 83° East  Level FlightAware Approximate
Fri 01:17:00 AM 47.7982 -42.7751 83° East  Level FlightAware Approximate
Fri 01:18:00 AM 47.8135 -42.5748 83° East  Level FlightAware Approximate
Fri 01:19:00 AM 47.8298 -42.3746 83° East  Level FlightAware Approximate
Fri 01:20:00 AM 47.8461 -42.1744 83° East  Level FlightAware Approximate
Fri 01:21:00 AM 47.8621 -41.9740 83° East  Level FlightAware Approximate
Fri 01:22:00 AM 47.8777 -41.7735 83° East  Level FlightAware Approximate
Fri 01:23:00 AM 47.8929 -41.5729 83° East  Level FlightAware Approximate
Fri 01:24:00 AM 47.9078 -41.3721 84° East  Level FlightAware Approximate
Fri 01:25:00 AM 47.9223 -41.1713 84° East  Level FlightAware Approximate
Fri 01:26:00 AM 47.9365 -40.9703 84° East  Level FlightAware Approximate
Fri 01:27:00 AM 47.9504 -40.7692 84° East  Level FlightAware Approximate
Fri 01:28:00 AM 47.9638 -40.5681 84° East  Level FlightAware Approximate
Fri 01:29:00 AM 47.9770 -40.3668 84° East  Level FlightAware Approximate
Fri 01:29:00 AM 48.0000 -40.0000 69° East 524 603 41,000  Level ETMS Enhanced Traffic Management System
Fri 01:30:00 AM 47.9898 -40.1654 85° East  Level FlightAware Approximate
Fri 01:31:00 AM 48.0086 -39.9661 69° East  Level FlightAware Approximate
Fri 01:32:00 AM 48.0562 -39.7765 69° East  Level FlightAware Approximate
Fri 01:33:00 AM 48.1035 -39.5867 69° East  Level FlightAware Approximate
Fri 01:34:00 AM 48.1505 -39.3964 70° East  Level FlightAware Approximate
Fri 01:35:00 AM 48.4005 -38.3564 71° East 524 603 41,000  Level FlightAware Transoceanic
Fri 01:36:00 AM 48.4489 -38.1491 71° East 524 603 41,000  Level FlightAware Transoceanic
Fri 01:37:00 AM 48.4969 -37.9415 71° East 524 603 41,000  Level FlightAware Transoceanic
Fri 01:38:00 AM 48.5445 -37.7335 71° East 524 603 41,000  Level FlightAware Transoceanic
Fri 01:39:00 AM 48.5918 -37.5250 71° East 524 603 41,000  Level FlightAware Transoceanic
Fri 01:40:00 AM 48.6387 -37.3162 71° East 524 603 41,000  Level FlightAware Transoceanic
Fri 01:41:00 AM 48.6852 -37.1070 71° East 524 603 41,000  Level FlightAware Transoceanic
Fri 01:42:00 AM 48.7314 -36.8974 72° East 524 603 41,000  Level FlightAware Transoceanic
Fri 01:43:00 AM 48.7771 -36.6875 72° East 524 603 41,000  Level FlightAware Transoceanic
Fri 01:44:00 AM 48.8225 -36.4771 72° East 524 603 41,000  Level FlightAware Transoceanic
Fri 01:45:00 AM 48.8675 -36.2664 72° East 524 603 41,000  Level FlightAware Transoceanic
Fri 01:46:00 AM 48.9121 -36.0553 72° East 524 603 41,000  Level FlightAware Transoceanic
Fri 01:47:00 AM 48.9563 -35.8438 72° East 524 603 41,000  Level FlightAware Transoceanic
Fri 01:48:00 AM 49.0002 -35.6319 73° East 524 603 41,000  Level FlightAware Transoceanic
Fri 01:49:00 AM 49.0436 -35.4197 73° East 524 603 41,000  Level FlightAware Transoceanic
Fri 01:50:00 AM 49.0867 -35.2071 73° East 524 603 41,000  Level FlightAware Transoceanic
Fri 01:51:00 AM 49.1294 -34.9941 73° East 524 603 41,000  Level FlightAware Transoceanic
Fri 01:52:00 AM 49.1716 -34.7808 73° East 524 603 41,000  Level FlightAware Transoceanic
Fri 01:53:00 AM 49.2135 -34.5671 73° East 524 603 41,000  Level FlightAware Transoceanic
Fri 01:54:00 AM 49.2550 -34.3530 74° East 524 603 41,000  Level FlightAware Transoceanic
Fri 01:55:00 AM 49.2961 -34.1386 74° East 524 603 41,000  Level FlightAware Transoceanic
Fri 01:56:00 AM 49.3368 -33.9239 74° East 524 603 41,000  Level FlightAware Transoceanic
Fri 01:57:00 AM 49.3771 -33.7087 74° East 524 603 41,000  Level FlightAware Transoceanic
Fri 01:58:00 AM 49.4170 -33.4933 74° East 524 603 41,000  Level FlightAware Transoceanic
Fri 01:59:00 AM 49.4565 -33.2774 74° East 524 603 41,000  Level FlightAware Transoceanic
Fri 02:00:00 AM 49.4956 -33.0613 75° East 524 603 41,000  Level FlightAware Transoceanic
Fri 02:01:00 AM 49.5343 -32.8447 75° East 524 603 41,000  Level FlightAware Transoceanic
Fri 02:02:00 AM 49.5726 -32.6279 75° East 524 603 41,000  Level FlightAware Transoceanic
Fri 02:03:00 AM 49.6104 -32.4107 75° East 524 603 41,000  Level FlightAware Transoceanic
Fri 02:04:00 AM 49.6479 -32.1932 75° East 524 603 41,000  Level FlightAware Transoceanic
Fri 02:05:00 AM 49.6850 -31.9753 75° East 524 603 41,000  Level FlightAware Transoceanic
Fri 02:06:00 AM 49.7216 -31.7571 76° East 524 603 41,000  Level FlightAware Transoceanic
Fri 02:07:00 AM 49.7579 -31.5386 76° East 524 603 41,000  Level FlightAware Transoceanic
Fri 02:08:00 AM 49.7937 -31.3197 76° East 524 603 41,000  Level FlightAware Transoceanic
Fri 02:09:00 AM 49.8291 -31.1006 76° East 524 603 41,000  Level FlightAware Transoceanic
Fri 02:10:00 AM 49.8641 -30.8811 76° East 524 603 41,000  Level FlightAware Transoceanic
Fri 02:11:00 AM 49.8987 -30.6613 76° East 524 603 41,000  Level FlightAware Transoceanic
Fri 02:12:00 AM 49.9329 -30.4412 77° East 524 603 41,000  Level FlightAware Transoceanic
Fri 02:13:00 AM 49.9667 -30.2207 77° East 524 603 41,000  Level FlightAware Transoceanic
Fri 02:14:00 AM 49.9976 -30.0158 77° East  Level FlightAware Approximate
Fri 02:15:00 AM 50.0282 -29.8105 77° East  Level FlightAware Approximate
Fri 02:16:00 AM 50.0418 -29.8339 69° East  Level FlightAware Approximate
Fri 02:17:00 AM 50.0910 -29.6374 69° East  Level FlightAware Approximate
Fri 02:18:00 AM 50.1398 -29.4404 69° East  Level FlightAware Approximate
Fri 02:18:00 AM 50.0000 -30.0000 69° East 516 594 41,000  Level ETMS Enhanced Traffic Management System
Fri 02:19:00 AM 50.1882 -29.2430 69° East  Level FlightAware Approximate
Fri 02:20:00 AM 50.2364 -29.0453 69° East  Level FlightAware Approximate
Fri 02:21:00 AM 50.2841 -28.8471 69° East  Level FlightAware Approximate
Fri 02:22:00 AM 50.3316 -28.6485 69° East  Level FlightAware Approximate
Fri 02:23:00 AM 50.3787 -28.4496 70° East  Level FlightAware Approximate
Fri 02:24:00 AM 50.5549 -27.6891 70° East 516 594 41,000  Level FlightAware Transoceanic
Fri 02:25:00 AM 50.6030 -27.4763 70° East 516 594 41,000  Level FlightAware Transoceanic
Fri 02:26:00 AM 50.6508 -27.2632 71° East 516 594 41,000  Level FlightAware Transoceanic
Fri 02:27:00 AM 50.6982 -27.0496 71° East 516 594 41,000  Level FlightAware Transoceanic
Fri 02:28:00 AM 50.7451 -26.8355 71° East 516 594 41,000  Level FlightAware Transoceanic
Fri 02:29:00 AM 50.7917 -26.6211 71° East 516 594 41,000  Level FlightAware Transoceanic
Fri 02:30:00 AM 50.8379 -26.4062 71° East 516 594 41,000  Level FlightAware Transoceanic
Fri 02:31:00 AM 50.8837 -26.1909 71° East 516 594 41,000  Level FlightAware Transoceanic
Fri 02:32:00 AM 50.9291 -25.9751 72° East 516 594 41,000  Level FlightAware Transoceanic
Fri 02:33:00 AM 50.9741 -25.7590 72° East 516 594 41,000  Level FlightAware Transoceanic
Fri 02:34:00 AM 51.0187 -25.5424 72° East 516 594 41,000  Level FlightAware Transoceanic
Fri 02:35:00 AM 51.0629 -25.3255 72° East 516 594 41,000  Level FlightAware Transoceanic
Fri 02:36:00 AM 51.1067 -25.1080 72° East 516 594 41,000  Level FlightAware Transoceanic
Fri 02:37:00 AM 51.1501 -24.8902 72° East 516 594 41,000  Level FlightAware Transoceanic
Fri 02:38:00 AM 51.1931 -24.6720 73° East 516 594 41,000  Level FlightAware Transoceanic
Fri 02:39:00 AM 51.2357 -24.4534 73° East 516 594 41,000  Level FlightAware Transoceanic
Fri 02:40:00 AM 51.2779 -24.2344 73° East 516 594 41,000  Level FlightAware Transoceanic
Fri 02:41:00 AM 51.3197 -24.0150 73° East 516 594 41,000  Level FlightAware Transoceanic
Fri 02:42:00 AM 51.3610 -23.7951 73° East 516 594 41,000  Level FlightAware Transoceanic
Fri 02:43:00 AM 51.4020 -23.5749 73° East 516 594 41,000  Level FlightAware Transoceanic
Fri 02:44:00 AM 51.4425 -23.3543 74° East 516 594 41,000  Level FlightAware Transoceanic
Fri 02:45:00 AM 51.4826 -23.1333 74° East 516 594 41,000  Level FlightAware Transoceanic
Fri 02:46:00 AM 51.5223 -22.9119 74° East 516 594 41,000  Level FlightAware Transoceanic
Fri 02:47:00 AM 51.5616 -22.6901 74° East 516 594 41,000  Level FlightAware Transoceanic
Fri 02:48:00 AM 51.6005 -22.4680 74° East 516 594 41,000  Level FlightAware Transoceanic
Fri 02:49:00 AM 51.6389 -22.2455 75° East 516 594 41,000  Level FlightAware Transoceanic
Fri 02:50:00 AM 51.6769 -22.0226 75° East 516 594 41,000  Level FlightAware Transoceanic
Fri 02:51:00 AM 51.7146 -21.7993 75° East 516 594 41,000  Level FlightAware Transoceanic
Fri 02:52:00 AM 51.7517 -21.5756 75° East 516 594 41,000  Level FlightAware Transoceanic
Fri 02:53:00 AM 51.7885 -21.3516 75° East 516 594 41,000  Level FlightAware Transoceanic
Fri 02:54:00 AM 51.8248 -21.1272 75° East 516 594 41,000  Level FlightAware Transoceanic
Fri 02:55:00 AM 51.8607 -20.9025 76° East 516 594 41,000  Level FlightAware Transoceanic
Fri 02:56:00 AM 51.8962 -20.6774 76° East 516 594 41,000  Level FlightAware Transoceanic
Fri 02:57:00 AM 51.9312 -20.4520 76° East 516 594 41,000  Level FlightAware Transoceanic
Fri 02:58:00 AM 51.9658 -20.2262 76° East 516 594 41,000  Level FlightAware Transoceanic
Fri 02:59:00 AM 51.9981 -20.0126 76° East  Level FlightAware Approximate
Fri 03:00:00 AM 52.0300 -19.7988 76° East  Level FlightAware Approximate
Fri 03:01:00 AM 52.0072 -19.8064 86° East  Level FlightAware Approximate
Fri 03:02:00 AM 52.0149 -19.5868 87° East  Level FlightAware Approximate
Fri 03:03:00 AM 52.0223 -19.3671 87° East  Level FlightAware Approximate
Fri 03:04:00 AM 52.0292 -19.1473 87° East  Level FlightAware Approximate
Fri 03:05:00 AM 52.0358 -18.9275 87° East  Level FlightAware Approximate
Fri 03:06:00 AM 52.0419 -18.7076 87° East  Level FlightAware Approximate
Fri 03:07:00 AM 52.0476 -18.4877 87° East  Level FlightAware Approximate
Fri 03:08:00 AM 52.0529 -18.2677 88° East  Level FlightAware Approximate
Fri 03:09:00 AM 52.0578 -18.0476 88° East  Level FlightAware Approximate
Fri 03:10:00 AM 52.0623 -17.8275 88° East  Level FlightAware Approximate
Fri 03:11:00 AM 52.0663 -17.6073 88° East  Level FlightAware Approximate
Fri 03:12:00 AM 52.0700 -17.3872 88° East  Level FlightAware Approximate
Fri 03:13:00 AM 52.0732 -17.1669 89° East  Level FlightAware Approximate
Fri 03:14:00 AM 52.0761 -16.9467 89° East  Level FlightAware Approximate
Fri 03:15:00 AM 52.0785 -16.7264 89° East  Level FlightAware Approximate
Fri 03:16:00 AM 52.0805 -16.5061 89° East  Level FlightAware Approximate
Fri 03:17:00 AM 52.0821 -16.2858 89° East  Level FlightAware Approximate
Fri 03:18:00 AM 52.0833 -16.0655 89° East  Level FlightAware Approximate
Fri 03:19:00 AM 52.0841 -15.8451 90° East  Level FlightAware Approximate
Fri 03:20:00 AM 52.0845 -15.6248 90° East  Level FlightAware Approximate
Fri 03:21:00 AM 52.0845 -15.4044 90° East  Level FlightAware Approximate
Fri 03:22:00 AM 52.0840 -15.1841 90° East  Level FlightAware Approximate
Fri 03:23:00 AM 52.0833 -14.9638 90° East  Level FlightAware Approximate
Fri 03:24:00 AM 52.0826 -14.7434 90° East  Level FlightAware Approximate
Fri 03:25:00 AM 52.0816 -14.5231 90° East  Level FlightAware Approximate
Fri 03:26:00 AM 52.0801 -14.3028 91° East  Level FlightAware Approximate
Fri 03:27:00 AM 52.0782 -14.0825 91° East  Level FlightAware Approximate
Fri 03:28:00 AM 52.0760 -13.8622 91° East  Level FlightAware Approximate
Fri 03:29:00 AM 52.0732 -13.6419 91° East  Level FlightAware Approximate
Fri 03:30:00 AM 52.0701 -13.4217 91° East  Level FlightAware Approximate
Fri 03:31:00 AM 52.0666 -13.2015 91° East  Level FlightAware Approximate
Fri 03:32:00 AM 52.0627 -12.9814 92° East  Level FlightAware Approximate
Fri 03:33:00 AM 52.0583 -12.7613 92° East  Level FlightAware Approximate
Fri 03:34:00 AM 52.0536 -12.5412 92° East  Level FlightAware Approximate
Fri 03:35:00 AM 52.0484 -12.3212 92° East  Level FlightAware Approximate
Fri 03:36:00 AM 52.0429 -12.1012 92° East  Level FlightAware Approximate
Fri 03:37:00 AM 52.0369 -11.8813 92° East  Level FlightAware Approximate
Fri 03:38:00 AM 52.0305 -11.6615 93° East  Level FlightAware Approximate
Fri 03:39:00 AM 52.0237 -11.4417 93° East  Level FlightAware Approximate
Fri 03:40:00 AM 52.0165 -11.2219 93° East  Level FlightAware Approximate
Fri 03:41:00 AM 52.0089 -11.0023 93° East  Level FlightAware Approximate
Fri 03:42:00 AM 52.0009 -10.7827 93° East  Level FlightAware Approximate
Fri 03:43:00 AM 51.9925 -10.5632 93° East  Level FlightAware Approximate
Fri 03:44:00 AM 51.9836 -10.3438 94° East  Level FlightAware Approximate
Fri 03:45:00 AM 51.9744 -10.1245 94° East  Level FlightAware Approximate
Fri 03:46:00 AM 51.9647 -9.9053 94° East  Level FlightAware Approximate
Fri 03:47:00 AM 51.9547 -9.6862 94° East  Level FlightAware Approximate
Fri 03:48:00 AM 51.9442 -9.4671 94° East  Level FlightAware Approximate
Fri 03:49:00 AM 51.9333 -9.2482 95° East  Level FlightAware Approximate
Fri 03:49:20 AM 51.9068 -8.9877 95° East 480 552 41,000  Level FlightAware UK
Fri 03:49:50 AM 51.9017 -8.8717 94° East 482 555 41,000  Level FlightAware UK
Fri 03:50:20 AM 51.8968 -8.7557 94° East 480 552 41,000  Level FlightAware UK
Fri 03:50:50 AM 51.8916 -8.6394 94° East 482 555 41,000  Level FlightAware UK
Fri 03:51:20 AM 51.8863 -8.5231 94° East 484 557 41,000  Level FlightAware UK
Fri 03:51:50 AM 51.8809 -8.4067 94° East 484 557 41,000  Level FlightAware UK
Fri 03:52:20 AM 51.8754 -8.2903 94° East 482 555 41,000  Level FlightAware UK
Fri 03:52:50 AM 51.8700 -8.1732 94° East 484 557 41,000  Level FlightAware UK
Fri 03:53:20 AM 51.8645 -8.0570 94° East 486 559 41,000  Level FlightAware UK
Fri 03:53:50 AM 51.8592 -7.9410 94° East 484 557 41,000  Level FlightAware UK
Fri 03:54:20 AM 51.8534 -7.8251 95° East 484 557 41,000  Level FlightAware UK
Fri 03:54:50 AM 51.8474 -7.7096 95° East 482 555 41,000  Level FlightAware UK
Fri 03:55:20 AM 51.8417 -7.5941 95° East 480 552 41,000  Level FlightAware UK
Fri 03:55:50 AM 51.8354 -7.4787 95° East 482 555 41,000  Level FlightAware UK
Fri 03:56:20 AM 51.8281 -7.3633 96° East 484 557 41,000  Level FlightAware UK
Fri 03:56:50 AM 51.8216 -7.2478 95° East 484 557 41,000  Level FlightAware UK
Fri 03:57:20 AM 51.8153 -7.1323 95° East 480 552 41,000  Level FlightAware UK
Fri 03:57:51 AM 51.8089 -7.0159 95° East 480 552 41,000  Level FlightAware UK
Fri 03:58:21 AM 51.8023 -6.9003 95° East 484 557 41,000  Level FlightAware UK
Fri 03:58:51 AM 51.8037 -6.7837 89° East 488 562 41,000  Level FlightAware UK
Fri 03:59:21 AM 51.8041 -6.6679 90° East 486 559 41,000  Level FlightAware UK
Fri 03:59:51 AM 51.8046 -6.5529 90° East 482 555 41,000  Level FlightAware UK
Fri 04:00:21 AM 51.8047 -6.4389 90° East 478 550 41,000  Level FlightAware UK
Fri 04:00:51 AM 51.8052 -6.3237 90° East 478 550 41,000  Level FlightAware UK
Fri 04:01:21 AM 51.8057 -6.2087 90° East 480 552 41,000  Level FlightAware UK
Fri 04:01:51 AM 51.8064 -6.0936 89° East 482 555 41,000  Level FlightAware UK
Fri 04:02:21 AM 51.8069 -5.9782 90° East 484 557 41,000  Level FlightAware UK
Fri 04:02:51 AM 51.8070 -5.8618 90° East 482 555 41,000  Level FlightAware UK
Fri 04:03:21 AM 51.8072 -5.7462 90° East 482 555 41,000  Level FlightAware UK
Fri 04:05:39 AM 51.8009 -5.2174 91° East 484 557 41,000 -281 Level FlightAware UK
Fri 04:06:33 AM 51.7911 -5.0108 94° East 482 555 40,100 -1,214 Descending FlightAware UK
Fri 04:07:03 AM 51.7858 -4.8896 94° East 494 568 39,300 -1,545 Descending FlightAware UK
Fri 04:07:39 AM 51.7800 -4.7445 94° East 498 573 38,400 -1,364 Descending FlightAware UK
Fri 04:08:09 AM 51.7749 -4.6239 94° East 492 566 37,800 -1,000 Descending FlightAware UK
Fri 04:08:45 AM 51.7700 -4.4794 93° East 488 562 37,300 -1,091 Descending FlightAware UK
Fri 04:09:15 AM 51.7662 -4.3603 93° East 486 559 36,600 -1,500 Descending FlightAware UK
Fri 04:09:45 AM 51.7620 -4.2423 93° East 482 555 35,800 -1,600 Descending FlightAware UK
Fri 04:10:15 AM 51.7584 -4.1247 93° East 480 552 35,000 -1,545 Descending FlightAware UK
Fri 04:10:51 AM 51.7539 -3.9823 93° East 486 559 34,100 -909 Descending FlightAware UK
Fri 04:11:21 AM 51.7443 -3.8670 98° East 480 552 34,000 -100 Descending FlightAware UK
Fri 04:11:51 AM 51.7352 -3.7523 97° East 478 550 34,000  Level FlightAware UK
Fri 04:12:21 AM 51.7264 -3.6378 97° East 476 548 34,000  Level FlightAware UK
Fri 04:12:51 AM 51.7177 -3.5231 97° East 476 548 34,000  Level FlightAware UK
Fri 04:13:39 AM 51.7036 -3.3392 97° East 478 550 34,000  Level FlightAware UK
Fri 04:14:15 AM 51.6929 -3.2011 97° East 476 548 34,000  Level FlightAware UK
Fri 04:14:46 AM 51.6836 -3.0852 97° East 478 550 34,000 -896 Level FlightAware UK
Fri 04:15:22 AM 51.6728 -2.9462 97° East 478 550 33,000 -2,750 Descending FlightAware UK
Fri 04:15:58 AM 51.6636 -2.8084 96° East 472 543 30,700 -3,273 Descending FlightAware UK
Fri 04:16:28 AM 51.6508 -2.6957 100° East 478 550 29,400 -2,067 Descending FlightAware UK
Fri 04:17:28 AM 51.6194 -2.4733 103° East 472 543 27,600 -1,938 Descending FlightAware UK
Fri 04:18:04 AM 51.6008 -2.3466 103° East 458 527 26,300 -2,333 Descending FlightAware UK
Fri 04:18:58 AM 51.5717 -2.1585 104° East 452 520 24,100 -2,438 Descending FlightAware UK
Fri 04:19:40 AM 51.5485 -2.0183 105° East 438 504 22,400 -2,417 Descending FlightAware UK
Fri 04:20:10 AM 51.5314 -1.9197 106° East 434 499 21,200 -2,203 Descending FlightAware UK
Fri 04:20:59 AM 51.5055 -1.7689 105° East 414 476 19,500 -1,929 Descending FlightAware UK
Fri 04:21:34 AM 51.4861 -1.6648 107° East 390 449 18,500 -1,250 Descending FlightAware UK
Fri 04:22:11 AM 51.4673 -1.5569 106° East 402 463 18,000 -380 Descending FlightAware UK
Fri 04:22:53 AM 51.4451 -1.4303 106° East 402 463 18,000  Level FlightAware UK
Fri 04:23:29 AM 51.4262 -1.3206 105° East 400 460 18,000  Level FlightAware UK
Fri 04:24:05 AM 51.4080 -1.2132 105° East 400 460 18,000  Level FlightAware UK
Fri 04:24:59 AM 51.3967 -1.0444 96° East 400 460 18,000  Level FlightAware UK
Fri 04:25:41 AM 51.4032 -0.9107 85° East 402 463 18,000  Level FlightAware UK
Fri 04:26:11 AM 51.4087 -0.8160 85° East 400 460 18,000  Level FlightAware UK
Fri 04:26:47 AM 51.4152 -0.7017 85° East 410 472 18,000  Level FlightAware UK
Fri 04:27:59 AM 51.4439 -0.4745 78° East 406 467 18,000  Level FlightAware UK
Fri 04:28:35 AM 51.4806 -0.3746 59° Northeast 408 470 18,000 -896 Level FlightAware UK
Fri 04:29:06 AM 51.5208 -0.3034 48° Northeast 398 458 17,000 -2,440 Descending FlightAware UK
Fri 04:30:06 AM 51.6065 -0.1757 43° Northeast 380 437 14,300 -2,600 Descending FlightAware UK
Fri 04:30:36 AM 51.6468 -0.1163 42° Northeast 364 419 13,100 -2,200 Descending FlightAware UK
Fri 04:31:06 AM 51.6852 -0.0591 43° Northeast 346 398 12,100 -1,400 Descending FlightAware UK
Fri 04:31:36 AM 51.7199 -0.0069 43° Northeast 310 357 11,700 -1,706 Descending FlightAware UK
Fri 04:32:48 AM 51.8177 0.0420 17° North 296 341 9,200 -1,688 Descending FlightAware UK
Fri 04:33:12 AM 51.8498 0.0461 North 274 315 9,000 -444 Descending FlightAware UK
Fri 04:33:42 AM 51.8871 0.0511 North 252 290 8,800 -875 Descending FlightAware UK
Fri 04:34:00 AM 51.9087 0.0542 North 252 290 8,300 -1,500 Descending FlightAware UK
Fri 04:35:42 AM 52.0266 0.0605 North 240 276 5,800 -1,133 Descending FlightAware UK
Fri 04:37:00 AM 51.9994 -0.0283 244° Southwest 234 269 4,900 -625 Descending FlightAware UK
Fri 04:37:18 AM 51.9836 -0.0426 209° Southwest 232 267 4,800 -625 Descending FlightAware UK
Fri 04:37:48 AM 51.9593 -0.0634 208° Southwest 200 230 4,400 -1,125 Descending FlightAware UK
Fri 04:38:06 AM 51.9461 -0.0753 209° Southwest 194 223 3,900 -1,500 Descending FlightAware UK
Fri 04:38:48 AM 51.9213 -0.1127 223° Southwest 190 219 2,900 -909 Descending FlightAware UK
Fri 04:39:12 AM 51.9133 -0.1399 245° Southwest 188 216 2,900 -143 Level FlightAware UK
Fri 04:39:30 AM 51.9093 -0.1616 253° West 186 214 2,800 -686 Descending FlightAware UK
Fri 04:39:47 AM 51.9062 -0.1829 257° West 178 205 2,500 -857 Descending FlightAware UK
Fri 04:40:05 AM 51.9031 -0.2026 256° West 168 193 2,300 -700 Descending FlightAware UK
Fri 04:40:47 AM 51.8955 -0.2476 255° West 162 186 1,800 -786 Descending FlightAware UK
Fri 04:41:29 AM 51.8879 -0.2924 255° West 158 182 1,200 -750 Descending FlightAware UK
Fri 04:41:59 AM 51.8829 -0.3206 254° West 144 166 900 -750 Descending FlightAware UK
Fri 04:42:17 AM 51.8799 -0.3379 254° West 146 168 600 -857 Descending FlightAware UK
Fri 04:42:41 AM 51.8757 -0.3617 254° West 146 168 300 -750 Descending FlightAware UK

Login

Don't have an account? Register now (free) for customized features, flight alerts, and more!